sensor_id;sensor_type;location;lat;lon;timestamp;pressure;altitude;pressure_sealevel;temperature;humidity
23166;BME280;11751;42.700;24.170;2023-05-22T00:00:36;93682.00;;;16.24;nan
23166;BME280;11751;42.700;24.170;2023-05-22T00:03:03;93677.97;;;16.27;nan
23166;BME280;11751;42.700;24.170;2023-05-22T00:05:29;93684.06;;;16.33;nan
23166;BME280;11751;42.700;24.170;2023-05-22T00:07:55;93678.41;;;16.33;nan
23166;BME280;11751;42.700;24.170;2023-05-22T00:10:20;93684.94;;;16.35;nan
23166;BME280;11751;42.700;24.170;2023-05-22T00:12:46;93680.66;;;16.25;nan
23166;BME280;11751;42.700;24.170;2023-05-22T00:15:12;93688.50;;;16.36;nan
23166;BME280;11751;42.700;24.170;2023-05-22T00:17:37;93685.59;;;16.25;nan
23166;BME280;11751;42.700;24.170;2023-05-22T00:20:03;93671.28;;;16.32;nan
23166;BME280;11751;42.700;24.170;2023-05-22T00:22:31;93672.34;;;16.27;nan
23166;BME280;11751;42.700;24.170;2023-05-22T00:25:03;93671.28;;;16.32;nan
23166;BME280;11751;42.700;24.170;2023-05-22T00:27:28;93672.19;;;16.25;nan
23166;BME280;11751;42.700;24.170;2023-05-22T00:29:54;93677.16;;;16.15;nan
23166;BME280;11751;42.700;24.170;2023-05-22T00:32:20;93673.38;;;16.01;nan
23166;BME280;11751;42.700;24.170;2023-05-22T00:34:45;93670.44;;;15.99;nan
23166;BME280;11751;42.700;24.170;2023-05-22T00:37:11;93670.44;;;15.99;nan
23166;BME280;11751;42.700;24.170;2023-05-22T00:39:37;93674.03;;;15.90;nan
23166;BME280;11751;42.700;24.170;2023-05-22T00:42:02;93677.19;;;15.85;nan
23166;BME280;11751;42.700;24.170;2023-05-22T00:44:28;93674.41;;;15.75;nan
23166;BME280;11751;42.700;24.170;2023-05-22T00:46:53;93676.94;;;15.71;nan
23166;BME280;11751;42.700;24.170;2023-05-22T00:49:19;93682.63;;;15.62;nan
23166;BME280;11751;42.700;24.170;2023-05-22T00:51:44;93677.06;;;15.43;nan
23166;BME280;11751;42.700;24.170;2023-05-22T00:54:11;93676.50;;;15.35;nan
23166;BME280;11751;42.700;24.170;2023-05-22T00:56:36;93684.97;;;15.26;nan
23166;BME280;11751;42.700;24.170;2023-05-22T00:59:02;93676.94;;;15.13;nan
23166;BME280;11751;42.700;24.170;2023-05-22T01:01:28;93677.28;;;14.98;nan
23166;BME280;11751;42.700;24.170;2023-05-22T01:03:58;93674.31;;;15.05;nan
23166;BME280;11751;42.700;24.170;2023-05-22T01:06:26;93662.44;;;14.97;nan
23166;BME280;11751;42.700;24.170;2023-05-22T01:08:51;93668.66;;;14.96;nan
23166;BME280;11751;42.700;24.170;2023-05-22T01:11:24;93666.19;;;14.71;nan
23166;BME280;11751;42.700;24.170;2023-05-22T01:14:04;93663.06;;;14.58;nan
23166;BME280;11751;42.700;24.170;2023-05-22T01:33:08;93673.00;;;14.40;nan
23166;BME280;11751;42.700;24.170;2023-05-22T01:35:35;93673.00;;;14.31;nan
23166;BME280;11751;42.700;24.170;2023-05-22T01:38:03;93668.81;;;14.13;nan
23166;BME280;11751;42.700;24.170;2023-05-22T01:40:29;93663.00;;;14.01;nan
23166;BME280;11751;42.700;24.170;2023-05-22T01:42:55;93668.59;;;13.92;nan
23166;BME280;11751;42.700;24.170;2023-05-22T01:45:20;93668.28;;;13.78;nan
23166;BME280;11751;42.700;24.170;2023-05-22T01:47:46;93668.84;;;13.67;nan
23166;BME280;11751;42.700;24.170;2023-05-22T01:50:12;93669.97;;;13.46;nan
23166;BME280;11751;42.700;24.170;2023-05-22T01:52:53;93670.50;;;13.35;nan
23166;BME280;11751;42.700;24.170;2023-05-22T01:55:28;93663.13;;;13.13;nan
23166;BME280;11751;42.700;24.170;2023-05-22T02:00:50;93670.63;;;13.01;nan
23166;BME280;11751;42.700;24.170;2023-05-22T02:03:19;93669.56;;;12.96;nan
23166;BME280;11751;42.700;24.170;2023-05-22T02:05:50;93675.09;;;12.87;nan
23166;BME280;11751;42.700;24.170;2023-05-22T02:08:19;93665.84;;;12.94;nan
23166;BME280;11751;42.700;24.170;2023-05-22T02:10:45;93676.50;;;12.95;nan
23166;BME280;11751;42.700;24.170;2023-05-22T02:13:13;93661.88;;;12.80;nan
23166;BME280;11751;42.700;24.170;2023-05-22T02:15:38;93668.13;;;12.88;nan
23166;BME280;11751;42.700;24.170;2023-05-22T02:18:09;93672.97;;;12.95;nan
23166;BME280;11751;42.700;24.170;2023-05-22T02:20:35;93658.91;;;12.78;nan
23166;BME280;11751;42.700;24.170;2023-05-22T02:23:00;93662.22;;;12.84;nan
23166;BME280;11751;42.700;24.170;2023-05-22T02:25:26;93667.34;;;12.95;nan
23166;BME280;11751;42.700;24.170;2023-05-22T02:27:51;93662.94;;;12.84;nan
23166;BME280;11751;42.700;24.170;2023-05-22T02:30:17;93657.31;;;12.84;nan
23166;BME280;11751;42.700;24.170;2023-05-22T02:32:42;93663.69;;;12.85;nan
23166;BME280;11751;42.700;24.170;2023-05-22T02:35:08;93664.44;;;12.85;nan
23166;BME280;11751;42.700;24.170;2023-05-22T02:37:34;93661.22;;;12.89;nan
23166;BME280;11751;42.700;24.170;2023-05-22T02:39:59;93665.84;;;12.94;nan
23166;BME280;11751;42.700;24.170;2023-05-22T02:42:25;93669.22;;;12.92;nan
23166;BME280;11751;42.700;24.170;2023-05-22T02:44:50;93675.28;;;12.89;nan
23166;BME280;11751;42.700;24.170;2023-05-22T02:47:16;93663.47;;;12.90;nan
23166;BME280;11751;42.700;24.170;2023-05-22T02:49:41;93671.47;;;12.94;nan
23166;BME280;11751;42.700;24.170;2023-05-22T02:52:06;93665.53;;;12.90;nan
23166;BME280;11751;42.700;24.170;2023-05-22T02:54:32;93662.63;;;12.80;nan
23166;BME280;11751;42.700;24.170;2023-05-22T02:56:57;93664.69;;;12.80;nan
23166;BME280;11751;42.700;24.170;2023-05-22T02:59:23;93675.75;;;12.78;nan
23166;BME280;11751;42.700;24.170;2023-05-22T03:01:49;93669.66;;;12.72;nan
23166;BME280;11751;42.700;24.170;2023-05-22T03:04:15;93669.06;;;12.47;nan
23166;BME280;11751;42.700;24.170;2023-05-22T03:06:41;93666.56;;;12.34;nan
23166;BME280;11751;42.700;24.170;2023-05-22T03:09:10;93667.31;;;12.18;nan
23166;BME280;11751;42.700;24.170;2023-05-22T03:11:36;93665.16;;;12.26;nan
23166;BME280;11751;42.700;24.170;2023-05-22T03:14:01;93672.50;;;12.21;nan
23166;BME280;11751;42.700;24.170;2023-05-22T03:16:27;93675.00;;;12.34;nan
23166;BME280;11751;42.700;24.170;2023-05-22T03:19:08;93688.19;;;12.41;nan
23166;BME280;11751;42.700;24.170;2023-05-22T03:21:34;93686.16;;;12.42;nan
23166;BME280;11751;42.700;24.170;2023-05-22T03:23:59;93690.75;;;12.47;nan
23166;BME280;11751;42.700;24.170;2023-05-22T03:26:25;93684.22;;;12.61;nan
23166;BME280;11751;42.700;24.170;2023-05-22T03:28:52;93672.47;;;12.72;nan
23166;BME280;11751;42.700;24.170;2023-05-22T03:31:18;93681.28;;;12.85;nan
23166;BME280;11751;42.700;24.170;2023-05-22T03:33:43;93679.97;;;12.86;nan
23166;BME280;11751;42.700;24.170;2023-05-22T03:36:08;93682.19;;;12.88;nan
23166;BME280;11751;42.700;24.170;2023-05-22T03:38:34;93685.41;;;12.84;nan
23166;BME280;11751;42.700;24.170;2023-05-22T03:40:59;93689.13;;;13.04;nan
23166;BME280;11751;42.700;24.170;2023-05-22T03:43:25;93691.19;;;13.30;nan
23166;BME280;11751;42.700;24.170;2023-05-22T03:45:50;93686.13;;;13.55;nan
23166;BME280;11751;42.700;24.170;2023-05-22T03:48:15;93693.53;;;14.05;nan
23166;BME280;11751;42.700;24.170;2023-05-22T03:50:41;93687.97;;;14.61;nan
23166;BME280;11751;42.700;24.170;2023-05-22T03:53:06;93686.59;;;15.29;nan
23166;BME280;11751;42.700;24.170;2023-05-22T03:55:31;93680.25;;;15.98;nan
23166;BME280;11751;42.700;24.170;2023-05-22T03:57:57;93682.28;;;16.70;nan
23166;BME280;11751;42.700;24.170;2023-05-22T04:00:23;93685.19;;;17.13;nan
23166;BME280;11751;42.700;24.170;2023-05-22T04:02:48;93694.38;;;17.03;nan
23166;BME280;11751;42.700;24.170;2023-05-22T04:05:15;93690.75;;;17.55;nan
23166;BME280;11751;42.700;24.170;2023-05-22T04:07:40;93671.94;;;18.17;nan
23166;BME280;11751;42.700;24.170;2023-05-22T04:12:31;93684.03;;;19.49;nan
23166;BME280;11751;42.700;24.170;2023-05-22T04:14:57;93683.50;;;20.16;nan
23166;BME280;11751;42.700;24.170;2023-05-22T04:17:22;93690.03;;;20.72;nan
23166;BME280;11751;42.700;24.170;2023-05-22T04:19:47;93684.38;;;21.14;nan
23166;BME280;11751;42.700;24.170;2023-05-22T04:22:13;93689.22;;;21.54;nan
23166;BME280;11751;42.700;24.170;2023-05-22T04:24:38;93671.44;;;21.69;nan
23166;BME280;11751;42.700;24.170;2023-05-22T04:27:05;93682.88;;;22.00;nan
23166;BME280;11751;42.700;24.170;2023-05-22T04:29:30;93685.66;;;22.29;nan
23166;BME280;11751;42.700;24.170;2023-05-22T04:31:56;93672.22;;;22.62;nan
23166;BME280;11751;42.700;24.170;2023-05-22T04:34:21;93684.31;;;22.93;nan
23166;BME280;11751;42.700;24.170;2023-05-22T04:36:46;93678.94;;;23.17;nan
23166;BME280;11751;42.700;24.170;2023-05-22T04:39:13;93677.53;;;23.35;nan
23166;BME280;11751;42.700;24.170;2023-05-22T04:48:56;93690.78;;;24.14;nan
23166;BME280;11751;42.700;24.170;2023-05-22T04:51:26;93672.59;;;24.24;nan
23166;BME280;11751;42.700;24.170;2023-05-22T04:53:52;93680.59;;;24.45;nan
23166;BME280;11751;42.700;24.170;2023-05-22T04:56:20;93682.38;;;23.65;nan
23166;BME280;11751;42.700;24.170;2023-05-22T04:58:46;93670.63;;;23.40;nan
23166;BME280;11751;42.700;24.170;2023-05-22T05:03:41;93674.00;;;22.86;nan
23166;BME280;11751;42.700;24.170;2023-05-22T05:10:57;93685.25;;;23.48;nan
23166;BME280;11751;42.700;24.170;2023-05-22T05:15:48;93674.13;;;22.73;nan
23166;BME280;11751;42.700;24.170;2023-05-22T05:30:21;93689.97;;;23.59;nan
23166;BME280;11751;42.700;24.170;2023-05-22T05:32:47;93678.53;;;23.24;nan
23166;BME280;11751;42.700;24.170;2023-05-22T05:35:12;93695.09;;;23.28;nan
23166;BME280;11751;42.700;24.170;2023-05-22T05:37:38;93677.84;;;23.08;nan
23166;BME280;11751;42.700;24.170;2023-05-22T05:47:21;93678.25;;;23.18;nan
23166;BME280;11751;42.700;24.170;2023-05-22T05:52:13;93675.38;;;22.52;nan
23166;BME280;11751;42.700;24.170;2023-05-22T05:54:38;93684.84;;;22.42;nan
23166;BME280;11751;42.700;24.170;2023-05-22T05:57:10;93675.44;;;22.24;nan
23166;BME280;11751;42.700;24.170;2023-05-22T06:02:01;93684.94;;;22.13;nan
23166;BME280;11751;42.700;24.170;2023-05-22T06:04:26;93689.53;;;22.20;nan
23166;BME280;11751;42.700;24.170;2023-05-22T06:09:17;93701.81;;;21.78;nan
23166;BME280;11751;42.700;24.170;2023-05-22T06:14:08;93689.44;;;21.16;nan
23166;BME280;11751;42.700;24.170;2023-05-22T06:16:34;93700.59;;;21.25;nan
23166;BME280;11751;42.700;24.170;2023-05-22T06:19:00;93695.19;;;20.89;nan
23166;BME280;11751;42.700;24.170;2023-05-22T06:21:25;93698.44;;;20.97;nan
23166;BME280;11751;42.700;24.170;2023-05-22T06:23:51;93697.50;;;20.92;nan
23166;BME280;11751;42.700;24.170;2023-05-22T06:26:16;93700.50;;;21.23;nan
23166;BME280;11751;42.700;24.170;2023-05-22T06:28:43;93706.41;;;21.27;nan
23166;BME280;11751;42.700;24.170;2023-05-22T06:31:08;93700.56;;;21.39;nan
23166;BME280;11751;42.700;24.170;2023-05-22T06:33:37;93690.47;;;21.51;nan
23166;BME280;11751;42.700;24.170;2023-05-22T06:36:05;93698.34;;;21.37;nan
23166;BME280;11751;42.700;24.170;2023-05-22T06:40:56;93697.09;;;21.69;nan
23166;BME280;11751;42.700;24.170;2023-05-22T06:43:22;93689.31;;;21.85;nan
23166;BME280;11751;42.700;24.170;2023-05-22T06:45:47;93693.47;;;21.97;nan
23166;BME280;11751;42.700;24.170;2023-05-22T06:48:12;93692.47;;;22.22;nan
23166;BME280;11751;42.700;24.170;2023-05-22T06:53:03;93696.47;;;21.70;nan
23166;BME280;11751;42.700;24.170;2023-05-22T06:55:29;93689.50;;;21.89;nan
23166;BME280;11751;42.700;24.170;2023-05-22T07:00:19;93706.94;;;21.66;nan
23166;BME280;11751;42.700;24.170;2023-05-22T07:05:10;93707.31;;;21.74;nan
23166;BME280;11751;42.700;24.170;2023-05-22T07:10:02;93705.25;;;21.61;nan
23166;BME280;11751;42.700;24.170;2023-05-22T07:12:28;93695.03;;;21.85;nan
23166;BME280;11751;42.700;24.170;2023-05-22T07:14:53;93709.44;;;21.89;nan
23166;BME280;11751;42.700;24.170;2023-05-22T07:17:19;93699.16;;;21.97;nan
23166;BME280;11751;42.700;24.170;2023-05-22T07:27:02;93703.34;;;21.52;nan
23166;BME280;11751;42.700;24.170;2023-05-22T07:39:10;93706.47;;;22.16;nan
23166;BME280;11751;42.700;24.170;2023-05-22T07:44:00;93702.44;;;22.36;nan
23166;BME280;11751;42.700;24.170;2023-05-22T07:51:17;93698.91;;;22.07;nan
23166;BME280;11751;42.700;24.170;2023-05-22T07:53:43;93706.25;;;22.12;nan
23166;BME280;11751;42.700;24.170;2023-05-22T07:58:33;93709.81;;;22.41;nan
23166;BME280;11751;42.700;24.170;2023-05-22T08:00:59;93706.00;;;22.52;nan
23166;BME280;11751;42.700;24.170;2023-05-22T08:03:25;93715.13;;;22.48;nan
23166;BME280;11751;42.700;24.170;2023-05-22T08:08:16;93708.91;;;21.92;nan
23166;BME280;11751;42.700;24.170;2023-05-22T08:13:07;93707.16;;;21.85;nan
23166;BME280;11751;42.700;24.170;2023-05-22T08:15:33;93709.16;;;21.83;nan
23166;BME280;11751;42.700;24.170;2023-05-22T08:17:59;93709.19;;;21.98;nan
23166;BME280;11751;42.700;24.170;2023-05-22T08:22:50;93702.75;;;21.98;nan
23166;BME280;11751;42.700;24.170;2023-05-22T08:27:40;93707.28;;;21.45;nan
23166;BME280;11751;42.700;24.170;2023-05-22T08:32:31;93706.50;;;21.29;nan
23166;BME280;11751;42.700;24.170;2023-05-22T08:34:57;93702.13;;;21.13;nan
23166;BME280;11751;42.700;24.170;2023-05-22T08:42:14;93718.69;;;21.03;nan
23166;BME280;11751;42.700;24.170;2023-05-22T08:54:31;93706.03;;;21.48;nan
23166;BME280;11751;42.700;24.170;2023-05-22T08:56:57;93701.59;;;21.45;nan
23166;BME280;11751;42.700;24.170;2023-05-22T09:01:48;93702.50;;;21.63;nan
23166;BME280;11751;42.700;24.170;2023-05-22T09:04:16;93712.31;;;21.60;nan
23166;BME280;11751;42.700;24.170;2023-05-22T09:09:10;93695.41;;;21.35;nan
23166;BME280;11751;42.700;24.170;2023-05-22T09:11:36;93698.31;;;21.51;nan
23166;BME280;11751;42.700;24.170;2023-05-22T09:16:48;93701.28;;;21.39;nan
23166;BME280;11751;42.700;24.170;2023-05-22T09:26:36;93706.59;;;21.31;nan
23166;BME280;11751;42.700;24.170;2023-05-22T09:31:28;93715.25;;;21.33;nan
23166;BME280;11751;42.700;24.170;2023-05-22T09:33:54;93712.81;;;21.28;nan
23166;BME280;11751;42.700;24.170;2023-05-22T09:36:20;93714.63;;;21.21;nan
23166;BME280;11751;42.700;24.170;2023-05-22T09:38:47;93718.84;;;21.20;nan
23166;BME280;11751;42.700;24.170;2023-05-22T09:41:12;93718.59;;;21.43;nan
23166;BME280;11751;42.700;24.170;2023-05-22T09:43:37;93715.44;;;21.37;nan
23166;BME280;11751;42.700;24.170;2023-05-22T09:48:32;93723.75;;;21.47;nan
23166;BME280;11751;42.700;24.170;2023-05-22T09:55:51;93721.06;;;21.64;nan
23166;BME280;11751;42.700;24.170;2023-05-22T09:58:18;93715.13;;;21.73;nan
23166;BME280;11751;42.700;24.170;2023-05-22T10:00:45;93717.31;;;22.04;nan
23166;BME280;11751;42.700;24.170;2023-05-22T10:05:49;93725.06;;;21.72;nan
23166;BME280;11751;42.700;24.170;2023-05-22T10:08:23;93719.78;;;21.96;nan
23166;BME280;11751;42.700;24.170;2023-05-22T10:10:50;93714.56;;;21.48;nan
23166;BME280;11751;42.700;24.170;2023-05-22T10:13:19;93715.59;;;21.68;nan
23166;BME280;11751;42.700;24.170;2023-05-22T10:15:49;93720.28;;;21.77;nan
23166;BME280;11751;42.700;24.170;2023-05-22T10:18:15;93719.19;;;21.55;nan
23166;BME280;11751;42.700;24.170;2023-05-22T10:20:42;93724.00;;;21.37;nan
23166;BME280;11751;42.700;24.170;2023-05-22T10:23:08;93722.63;;;21.25;nan
23166;BME280;11751;42.700;24.170;2023-05-22T10:28:03;93728.97;;;20.16;nan
23166;BME280;11751;42.700;24.170;2023-05-22T10:35:43;93720.09;;;20.88;nan
23166;BME280;11751;42.700;24.170;2023-05-22T10:40:45;93712.66;;;21.52;nan
23166;BME280;11751;42.700;24.170;2023-05-22T10:43:11;93707.94;;;22.17;nan
23166;BME280;11751;42.700;24.170;2023-05-22T10:50:36;93692.22;;;23.10;nan
23166;BME280;11751;42.700;24.170;2023-05-22T10:55:56;93689.88;;;23.22;nan
23166;BME280;11751;42.700;24.170;2023-05-22T11:01:25;93686.63;;;23.64;nan
23166;BME280;11751;42.700;24.170;2023-05-22T11:07:01;93685.09;;;23.79;nan
23166;BME280;11751;42.700;24.170;2023-05-22T11:12:22;93687.06;;;23.92;nan
23166;BME280;11751;42.700;24.170;2023-05-22T11:22:08;93683.81;;;23.82;nan
23166;BME280;11751;42.700;24.170;2023-05-22T11:27:06;93672.50;;;23.86;nan
23166;BME280;11751;42.700;24.170;2023-05-22T11:29:31;93679.28;;;23.94;nan
23166;BME280;11751;42.700;24.170;2023-05-22T11:36:48;93669.88;;;23.57;nan
23166;BME280;11751;42.700;24.170;2023-05-22T11:44:07;93671.34;;;23.58;nan
23166;BME280;11751;42.700;24.170;2023-05-22T11:56:18;93680.50;;;22.56;nan
23166;BME280;11751;42.700;24.170;2023-05-22T11:58:47;93671.13;;;22.53;nan
23166;BME280;11751;42.700;24.170;2023-05-22T12:03:39;93670.00;;;22.30;nan
23166;BME280;11751;42.700;24.170;2023-05-22T12:06:05;93660.06;;;22.31;nan
23166;BME280;11751;42.700;24.170;2023-05-22T12:13:27;93672.94;;;22.78;nan
23166;BME280;11751;42.700;24.170;2023-05-22T12:20:45;93660.31;;;22.67;nan
23166;BME280;11751;42.700;24.170;2023-05-22T12:28:10;93675.56;;;22.26;nan
23166;BME280;11751;42.700;24.170;2023-05-22T12:30:39;93676.84;;;22.23;nan
23166;BME280;11751;42.700;24.170;2023-05-22T12:35:37;93665.31;;;22.21;nan
23166;BME280;11751;42.700;24.170;2023-05-22T12:38:02;93671.03;;;22.21;nan
23166;BME280;11751;42.700;24.170;2023-05-22T12:45:18;93672.25;;;23.28;nan
23166;BME280;11751;42.700;24.170;2023-05-22T12:52:34;93655.91;;;24.00;nan
23166;BME280;11751;42.700;24.170;2023-05-22T13:02:16;93648.00;;;23.46;nan
23166;BME280;11751;42.700;24.170;2023-05-22T13:04:41;93646.28;;;23.22;nan
23166;BME280;11751;42.700;24.170;2023-05-22T13:09:32;93640.66;;;22.91;nan
23166;BME280;11751;42.700;24.170;2023-05-22T13:11:57;93653.22;;;22.68;nan
23166;BME280;11751;42.700;24.170;2023-05-22T13:14:24;93647.19;;;22.60;nan
23166;BME280;11751;42.700;24.170;2023-05-22T13:21:41;93663.41;;;22.41;nan
23166;BME280;11751;42.700;24.170;2023-05-22T13:24:07;93668.50;;;21.67;nan
23166;BME280;11751;42.700;24.170;2023-05-22T13:26:33;93674.81;;;21.37;nan
23166;BME280;11751;42.700;24.170;2023-05-22T13:31:23;93679.63;;;20.50;nan
23166;BME280;11751;42.700;24.170;2023-05-22T13:33:49;93672.13;;;19.39;nan
23166;BME280;11751;42.700;24.170;2023-05-22T13:36:16;93697.81;;;18.57;nan
23166;BME280;11751;42.700;24.170;2023-05-22T13:38:41;93692.16;;;17.89;nan
23166;BME280;11751;42.700;24.170;2023-05-22T13:41:07;93696.03;;;17.49;nan
23166;BME280;11751;42.700;24.170;2023-05-22T13:45:58;93701.03;;;17.07;nan
23166;BME280;11751;42.700;24.170;2023-05-22T13:48:23;93707.59;;;16.89;nan
23166;BME280;11751;42.700;24.170;2023-05-22T13:53:14;93706.22;;;17.11;nan
23166;BME280;11751;42.700;24.170;2023-05-22T13:55:39;93710.25;;;17.28;nan
23166;BME280;11751;42.700;24.170;2023-05-22T13:58:05;93694.41;;;17.14;nan
23166;BME280;11751;42.700;24.170;2023-05-22T14:00:30;93698.91;;;17.28;nan
23166;BME280;11751;42.700;24.170;2023-05-22T14:05:22;93698.13;;;17.16;nan
23166;BME280;11751;42.700;24.170;2023-05-22T14:07:48;93712.28;;;17.49;nan
23166;BME280;11751;42.700;24.170;2023-05-22T14:10:14;93726.09;;;17.54;nan
23166;BME280;11751;42.700;24.170;2023-05-22T14:12:39;93719.00;;;17.76;nan
23166;BME280;11751;42.700;24.170;2023-05-22T14:15:05;93708.88;;;17.62;nan
23166;BME280;11751;42.700;24.170;2023-05-22T14:17:31;93710.28;;;17.95;nan
23166;BME280;11751;42.700;24.170;2023-05-22T14:22:23;93707.28;;;18.16;nan
23166;BME280;11751;42.700;24.170;2023-05-22T14:24:48;93704.72;;;18.20;nan
23166;BME280;11751;42.700;24.170;2023-05-22T14:27:14;93702.50;;;18.07;nan
23166;BME280;11751;42.700;24.170;2023-05-22T14:29:40;93715.06;;;18.04;nan
23166;BME280;11751;42.700;24.170;2023-05-22T14:34:31;93720.00;;;18.38;nan
23166;BME280;11751;42.700;24.170;2023-05-22T14:36:56;93707.56;;;18.43;nan
23166;BME280;11751;42.700;24.170;2023-05-22T14:39:23;93724.31;;;18.62;nan
23166;BME280;11751;42.700;24.170;2023-05-22T14:41:49;93723.69;;;18.63;nan
23166;BME280;11751;42.700;24.170;2023-05-22T14:44:15;93720.84;;;18.63;nan
23166;BME280;11751;42.700;24.170;2023-05-22T14:46:40;93720.72;;;18.73;nan
23166;BME280;11751;42.700;24.170;2023-05-22T14:49:06;93723.91;;;18.79;nan
23166;BME280;11751;42.700;24.170;2023-05-22T14:51:31;93724.16;;;18.83;nan
23166;BME280;11751;42.700;24.170;2023-05-22T14:53:57;93726.50;;;18.75;nan
23166;BME280;11751;42.700;24.170;2023-05-22T14:58:48;93704.69;;;18.66;nan
23166;BME280;11751;42.700;24.170;2023-05-22T15:01:14;93715.69;;;18.48;nan
23166;BME280;11751;42.700;24.170;2023-05-22T15:03:39;93715.34;;;18.31;nan
23166;BME280;11751;42.700;24.170;2023-05-22T15:06:05;93707.72;;;18.22;nan
23166;BME280;11751;42.700;24.170;2023-05-22T15:08:31;93711.38;;;18.36;nan
23166;BME280;11751;42.700;24.170;2023-05-22T15:10:56;93714.31;;;18.61;nan
23166;BME280;11751;42.700;24.170;2023-05-22T15:13:21;93716.41;;;18.72;nan
23166;BME280;11751;42.700;24.170;2023-05-22T15:15:47;93715.03;;;18.73;nan
23166;BME280;11751;42.700;24.170;2023-05-22T15:18:12;93726.16;;;18.57;nan
23166;BME280;11751;42.700;24.170;2023-05-22T15:20:38;93707.00;;;18.81;nan
23166;BME280;11751;42.700;24.170;2023-05-22T15:23:04;93713.50;;;18.94;nan
23166;BME280;11751;42.700;24.170;2023-05-22T15:25:29;93717.97;;;18.86;nan
23166;BME280;11751;42.700;24.170;2023-05-22T15:27:57;93707.56;;;19.13;nan
23166;BME280;11751;42.700;24.170;2023-05-22T15:30:26;93696.81;;;18.64;nan
23166;BME280;11751;42.700;24.170;2023-05-22T15:32:52;93707.78;;;19.06;nan
23166;BME280;11751;42.700;24.170;2023-05-22T15:37:42;93695.47;;;19.38;nan
23166;BME280;11751;42.700;24.170;2023-05-22T15:40:08;93702.47;;;19.23;nan
23166;BME280;11751;42.700;24.170;2023-05-22T15:45:00;93708.13;;;18.76;nan
23166;BME280;11751;42.700;24.170;2023-05-22T15:47:26;93690.16;;;18.60;nan
23166;BME280;11751;42.700;24.170;2023-05-22T15:49:52;93699.25;;;18.70;nan
23166;BME280;11751;42.700;24.170;2023-05-22T15:52:17;93700.28;;;18.40;nan
23166;BME280;11751;42.700;24.170;2023-05-22T15:54:43;93700.41;;;18.42;nan
23166;BME280;11751;42.700;24.170;2023-05-22T16:01:59;93700.38;;;18.65;nan
23166;BME280;11751;42.700;24.170;2023-05-22T16:04:24;93709.00;;;18.67;nan
23166;BME280;11751;42.700;24.170;2023-05-22T16:09:15;93697.31;;;18.61;nan
23166;BME280;11751;42.700;24.170;2023-05-22T16:11:42;93704.38;;;18.85;nan
23166;BME280;11751;42.700;24.170;2023-05-22T16:14:08;93703.81;;;18.75;nan
23166;BME280;11751;42.700;24.170;2023-05-22T16:16:33;93695.78;;;18.71;nan
23166;BME280;11751;42.700;24.170;2023-05-22T16:18:59;93702.81;;;18.70;nan
23166;BME280;11751;42.700;24.170;2023-05-22T16:21:25;93719.72;;;18.80;nan
23166;BME280;11751;42.700;24.170;2023-05-22T16:26:15;93726.88;;;18.81;nan
23166;BME280;11751;42.700;24.170;2023-05-22T16:31:06;93728.94;;;18.80;nan
23166;BME280;11751;42.700;24.170;2023-05-22T16:33:32;93721.97;;;18.58;nan
23166;BME280;11751;42.700;24.170;2023-05-22T16:36:00;93728.63;;;18.51;nan
23166;BME280;11751;42.700;24.170;2023-05-22T16:40:51;93727.41;;;18.54;nan
23166;BME280;11751;42.700;24.170;2023-05-22T16:43:19;93725.19;;;18.30;nan
23166;BME280;11751;42.700;24.170;2023-05-22T16:45:44;93744.44;;;18.43;nan
23166;BME280;11751;42.700;24.170;2023-05-22T16:48:15;93761.53;;;18.10;nan
23166;BME280;11751;42.700;24.170;2023-05-22T16:50:40;93762.47;;;17.92;nan
23166;BME280;11751;42.700;24.170;2023-05-22T16:53:08;93776.63;;;17.81;nan
23166;BME280;11751;42.700;24.170;2023-05-22T16:55:33;93770.06;;;17.34;nan
23166;BME280;11751;42.700;24.170;2023-05-22T17:02:51;93783.69;;;17.06;nan
23166;BME280;11751;42.700;24.170;2023-05-22T17:05:18;93792.19;;;16.85;nan
23166;BME280;11751;42.700;24.170;2023-05-22T17:07:44;93787.38;;;16.66;nan
23166;BME280;11751;42.700;24.170;2023-05-22T17:10:10;93794.25;;;16.63;nan
23166;BME280;11751;42.700;24.170;2023-05-22T17:12:36;93812.06;;;16.45;nan
23166;BME280;11751;42.700;24.170;2023-05-22T17:15:01;93798.63;;;16.15;nan
23166;BME280;11751;42.700;24.170;2023-05-22T17:17:27;93821.44;;;15.98;nan
23166;BME280;11751;42.700;24.170;2023-05-22T17:19:52;93826.72;;;15.64;nan
23166;BME280;11751;42.700;24.170;2023-05-22T17:22:18;93824.34;;;15.60;nan
23166;BME280;11751;42.700;24.170;2023-05-22T17:24:43;93829.09;;;15.67;nan
23166;BME280;11751;42.700;24.170;2023-05-22T17:27:09;93838.75;;;15.64;nan
23166;BME280;11751;42.700;24.170;2023-05-22T17:29:35;93837.38;;;15.84;nan
23166;BME280;11751;42.700;24.170;2023-05-22T17:32:01;93831.41;;;15.90;nan
23166;BME280;11751;42.700;24.170;2023-05-22T17:34:29;93822.78;;;15.88;nan
23166;BME280;11751;42.700;24.170;2023-05-22T17:36:54;93839.25;;;16.10;nan
23166;BME280;11751;42.700;24.170;2023-05-22T17:39:21;93822.72;;;16.07;nan
23166;BME280;11751;42.700;24.170;2023-05-22T17:41:46;93820.63;;;16.17;nan
23166;BME280;11751;42.700;24.170;2023-05-22T17:44:12;93817.38;;;16.11;nan
23166;BME280;11751;42.700;24.170;2023-05-22T17:46:37;93820.75;;;16.19;nan
23166;BME280;11751;42.700;24.170;2023-05-22T17:49:04;93822.56;;;16.14;nan
23166;BME280;11751;42.700;24.170;2023-05-22T17:51:29;93811.00;;;16.10;nan
23166;BME280;11751;42.700;24.170;2023-05-22T17:53:55;93824.03;;;16.15;nan
23166;BME280;11751;42.700;24.170;2023-05-22T17:56:23;93825.25;;;16.12;nan
23166;BME280;11751;42.700;24.170;2023-05-22T17:58:50;93827.28;;;16.21;nan
23166;BME280;11751;42.700;24.170;2023-05-22T18:01:17;93828.97;;;16.15;nan
23166;BME280;11751;42.700;24.170;2023-05-22T18:03:45;93828.06;;;16.12;nan
23166;BME280;11751;42.700;24.170;2023-05-22T18:06:11;93829.25;;;16.19;nan